• Join FlightAware (Why Join?)
  • Login
  • US Flag 
12:11PM EDT


 

Airport Tracker/Info


-or-


 

Live Flight TrackerFlight Track Log ✈ TPA725 ✈ 11-Jun-2013 ✈ KMIA - SVVA / VLN

Flight Track Log - Related Links

Times and Time Zones

All times are in EDT time to prevent confusion due to time zone crossing. See the TPA725 flight status page for this flight to view local times or setup timezone preferences in your user account.

Time Position Orientation Groundspeed Altitude Reporting Facility
EDT Latitude Longitude Course Direction KTS MPH feet Rate Location/Type
11:38AM 25.7920 -80.3060 174° South  Level FlightAware
11:40AM 25.7900 -80.3060 180° South 10 12 60 Level FlightAware
11:41AM 25.7890 -80.3060 180° South 10 12 120 Level FlightAware
11:44AM 25.5918 -80.1284 119° Southeast  Level Estimated
11:44AM 25.7880 -80.3060 119° Southeast 20 23  Level FlightAware
11:44AM 25.7880 -80.3070 270° West 25 29 180 Level FlightAware
11:45AM 25.7880 -80.3090 270° West 34 39 180 Level FlightAware
11:45AM 25.7880 -80.3130 270° West 34 39 240 Level FlightAware
11:46AM 25.7880 -80.3150 270° West 26 30 240 Level FlightAware
11:46AM 25.7860 -80.3150 180° South 25 29 300 Level FlightAware
11:48AM 25.7870 -80.3050 84° East 105 121 360 Level FlightAware
11:49AM 25.7870 -80.2870 90° East 176 203 1,020 Level FlightAware
11:49AM 25.7810 -80.2480 100° East 180 207 1,200 1,320 Climbing FlightAware
11:50AM 25.7730 -80.2260 112° Southeast 205 236 1,500 1,260 Climbing FlightAware
11:51AM 25.7530 -80.1670 111° Southeast 255 293 2,800 1,560 Climbing FlightAware
11:51AM 25.7500 -80.1520 103° East 261 300 3,200 2,340 Climbing FlightAware
11:51AM 25.7420 -80.1180 105° East 266 306 4,300 2,520 Climbing FlightAware
11:52AM 25.7350 -80.0830 103° East 270 311 5,400 2,460 Climbing FlightAware
11:52AM 25.7290 -80.0550 103° East 274 315 6,200 2,280 Climbing FlightAware
11:53AM 25.7200 -80.0160 104° East 278 320 7,300 2,220 Climbing FlightAware
11:53AM 25.7120 -79.9780 103° East 286 329 8,300 2,100 Climbing FlightAware
11:53AM 25.7080 -79.9610 105° East 287 330 8,700 2,100 Climbing FlightAware
11:54AM 25.6990 -79.9200 104° East 294 338 9,700 1,680 Climbing FlightAware
11:54AM 25.6850 -79.8560 104° East 321 369 10,700 1,200 Climbing FlightAware
11:55AM 25.6630 -79.7590 104° East 367 422 11,700 1,440 Climbing FlightAware
11:56AM 25.6450 -79.6780 104° East 374 430 13,100 1,860 Climbing FlightAware
11:57AM 25.6260 -79.5960 104° East 382 440 14,500 1,800 Climbing FlightAware
11:57AM 25.6080 -79.5130 104° East 390 449 15,700 1,740 Climbing FlightAware
11:58AM 25.5900 -79.4350 104° East 397 457 16,900 1,680 Climbing FlightAware
11:59AM 25.5710 -79.3490 104° East 404 465 18,100 1,500 Climbing FlightAware
11:59AM 25.5540 -79.2730 104° East 410 472 19,000 1,380 Climbing FlightAware
12:00PM 25.5010 -79.1790 122° Southeast 420 483 20,300 1,320 Climbing FlightAware
12:01PM 25.4230 -79.0800 131° Southeast 429 494 21,500 1,260 Climbing FlightAware
12:03PM 25.3310 -78.9610 131° Southeast 445 512 23,000 1,200 Climbing FlightAware
12:03PM 25.2710 -78.8840 131° Southeast 449 517 23,900 960 Climbing FlightAware
12:04PM 25.2170 -78.8140 130° Southeast 455 524 24,400 780 Climbing FlightAware
12:05PM 25.1660 -78.7490 131° Southeast 467 537 24,900 960 Climbing FlightAware
12:05PM 25.0960 -78.6600 131° Southeast 471 542 25,800 660 Climbing FlightAware
12:06PM 25.0530 -78.6020 129° Southeast 473 544 25,900 60 Climbing FlightAware
12:07PM 24.9800 -78.5060 130° Southeast 473 544 25,900  Level FlightAware
12:08PM 24.9340 -78.4470 131° Southeast 473 544 25,900  Level FlightAware
12:09PM 24.8610 -78.3510 130° Southeast 473 544 25,900  Level FlightAware
12:09PM 24.8190 -78.2960 130° Southeast 473 544 25,900 2,460 Level FlightAware
12:10PM 24.6767 -78.1306 130° Southeast 493 567 29,500 2,340 Climbing Miami Center
12:11PM 24.5858 -78.0153 131° Southeast 493 567 30,300 780 Climbing Miami Center
12:12PM 24.4947 -77.9003 131° Southeast 493 567 31,100 900 Climbing Miami Center
12:13PM 24.4014 -77.7831 131° Southeast 493 567 32,100 1,020 Climbing Miami Center
12:14PM 24.3081 -77.6683 132° Southeast 498 573 33,200 900 Climbing Miami Center
12:15PM 24.2186 -77.5539 131° Southeast 493 567 34,000 900 Climbing Miami Center
12:16PM 24.1250 -77.4394 132° Southeast 493 567 35,100 960 Climbing Miami Center
12:17PM 24.0336 -77.3231 131° Southeast 493 567 36,000 900 Climbing Miami Center
12:18PM 23.9419 -77.2089 131° Southeast 493 567 37,000 480 Climbing Miami Center
12:19PM 23.8628 -77.1067 130° Southeast 487 560 37,000  Level Miami Center
12:20PM 23.7708 -76.9953 132° Southeast 487 560 37,000  Level Miami Center
12:21PM 23.6811 -76.8839 131° Southeast 492 566 37,000  Level Miami Center
12:22PM 23.5911 -76.7728 131° Southeast 492 566 37,000  Level Miami Center
12:23PM 23.4992 -76.6594 131° Southeast 492 566 37,000  Level Miami Center
12:24PM 23.4069 -76.5464 132° Southeast 492 566 37,000  Level Miami Center
12:25PM 23.3147 -76.4358 132° Southeast 492 566 37,000  Level Miami Center
12:26PM 23.2225 -76.3231 132° Southeast 492 566 37,000  Level Miami Center
12:27PM 23.1300 -76.2106 132° Southeast 492 566 37,000  Level Miami Center
12:28PM 23.0397 -76.1003 132° Southeast 492 566 37,000  Level Miami Center
12:29PM 22.9450 -75.9903 133° Southeast 492 566 37,000  Level Miami Center
12:30PM 22.8544 -75.8783 131° Southeast 492 566 37,000  Level Miami Center
12:31PM 22.7617 -75.7664 132° Southeast 492 566 37,000  Level Miami Center
12:32PM 22.6669 -75.6522 132° Southeast 492 566 37,000  Level Miami Center
12:33PM 22.5739 -75.5408 132° Southeast 492 566 37,000  Level Miami Center
12:34PM 22.4811 -75.4292 132° Southeast 492 566 37,000  Level Miami Center
12:35PM 22.3881 -75.3181 132° Southeast 492 566 37,000  Level Miami Center
12:36PM 22.2928 -75.2092 133° Southeast 492 566 37,000  Level Miami Center
12:37PM 22.1997 -75.0958 132° Southeast 492 566 37,000  Level Miami Center
12:38PM 22.1064 -74.9828 132° Southeast 492 566 37,000  Level Miami Center
12:39PM 22.0069 -74.8744 135° Southeast 492 566 37,000  Level Miami Center
12:40PM 21.9136 -74.7639 132° Southeast 497 572 37,000  Level Miami Center
12:41PM 21.8181 -74.6561 134° Southeast 502 578 37,000 480 Level Miami Center
12:42PM 21.7078 -74.5417 136° Southeast 502 578 38,000 900 Climbing Miami Center
12:43PM 21.5997 -74.4453 140° Southeast 502 578 38,800 420 Climbing Miami Center
12:44PM 21.4919 -74.3558 142° Southeast 502 578 38,900 60 Climbing Miami Center
12:45PM 21.3797 -74.2597 141° Southeast 502 578 39,000  Climbing Miami Center
12:46PM 21.2714 -74.1661 141° Southeast 497 572 39,000  Level Miami Center
12:47PM 21.1636 -74.0769 142° Southeast 497 572 39,000  Level Miami Center
12:48PM 21.0553 -73.9858 142° Southeast 497 572 39,000  Level Miami Center
12:49PM 20.9450 -73.8903 141° Southeast 497 572 39,000  Level Miami Center
12:50PM 20.8389 -73.8039 143° Southeast 497 572 39,000  Level Miami Center
12:51PM 20.7286 -73.7111 142° Southeast 497 572 39,000  Level Miami Center
12:52PM 20.6203 -73.6181 141° Southeast 497 572 39,000  Level Miami Center
12:53PM 20.5119 -73.5278 142° Southeast 497 572 39,000  Level Miami Center
12:54PM 20.4014 -73.4353 142° Southeast 497 572 39,000  Level Miami Center
12:55PM 20.2931 -73.3408 141° Southeast 497 572 39,000  Level Miami Center
12:56PM 20.1867 -73.2528 142° Southeast 497 572 39,000 -180 Level Miami Center
12:58PM 20.0382 -73.1509 153° Southeast  Level FlightAware Approximate
01:05PM 19.2738 -72.7304 153° Southeast  Level FlightAware Approximate
01:06PM 19.1646 -72.6707 153° Southeast  Level FlightAware Approximate
01:07PM 19.0553 -72.6110 153° Southeast  Level FlightAware Approximate
01:08PM 18.9459 -72.5514 153° Southeast  Level FlightAware Approximate
01:09PM 18.8366 -72.4919 153° Southeast  Level FlightAware Approximate
01:10PM 18.7273 -72.4325 153° Southeast  Level FlightAware Approximate
01:11PM 18.6179 -72.3731 153° Southeast  Level FlightAware Approximate
01:12PM 18.5085 -72.3138 153° Southeast  Level FlightAware Approximate
01:13PM 18.3991 -72.2546 153° Southeast  Level FlightAware Approximate
01:14PM 18.2897 -72.1955 153° Southeast  Level FlightAware Approximate
01:15PM 18.1802 -72.1364 153° Southeast  Level FlightAware Approximate
01:16PM 18.0707 -72.0774 153° Southeast  Level FlightAware Approximate
01:17PM 17.9613 -72.0185 153° Southeast  Level FlightAware Approximate
01:18PM 17.8518 -71.9597 153° Southeast  Level FlightAware Approximate
01:19PM 17.7423 -71.9009 153° Southeast  Level FlightAware Approximate
01:20PM 17.6327 -71.8422 153° Southeast  Level FlightAware Approximate
01:21PM 17.5232 -71.7836 153° Southeast  Level FlightAware Approximate
01:22PM 17.4136 -71.7251 153° Southeast  Level FlightAware Approximate
01:23PM 17.3042 -71.6662 153° Southeast  Level FlightAware Approximate
01:24PM 17.1949 -71.6072 153° Southeast  Level FlightAware Approximate
01:25PM 17.0856 -71.5482 153° Southeast  Level FlightAware Approximate
01:26PM 16.9763 -71.4893 153° Southeast  Level FlightAware Approximate
01:27PM 16.8669 -71.4305 153° Southeast  Level FlightAware Approximate
01:28PM 16.7576 -71.3717 153° Southeast  Level FlightAware Approximate
01:29PM 16.6482 -71.3130 153° Southeast  Level FlightAware Approximate
01:30PM 16.5388 -71.2544 153° Southeast  Level FlightAware Approximate
01:31PM 16.4294 -71.1958 153° Southeast  Level FlightAware Approximate
01:32PM 16.3200 -71.1373 153° Southeast  Level FlightAware Approximate
01:33PM 16.2105 -71.0789 153° Southeast  Level FlightAware Approximate
01:34PM 16.1011 -71.0205 153° Southeast  Level FlightAware Approximate
01:35PM 15.9915 -70.9622 153° Southeast  Level FlightAware Approximate
01:36PM 15.8817 -70.9048 153° Southeast  Level FlightAware Approximate
01:37PM 15.7718 -70.8473 153° Southeast  Level FlightAware Approximate
01:38PM 15.6619 -70.7900 153° Southeast  Level FlightAware Approximate
01:39PM 15.5520 -70.7327 153° Southeast  Level FlightAware Approximate
01:40PM 15.4421 -70.6755 153° Southeast  Level FlightAware Approximate
01:41PM 15.3321 -70.6183 153° Southeast  Level FlightAware Approximate
01:42PM 15.2222 -70.5612 153° Southeast  Level FlightAware Approximate
01:43PM 15.1122 -70.5041 153° Southeast  Level FlightAware Approximate
01:44PM 15.0022 -70.4472 153° Southeast  Level FlightAware Approximate
01:45PM 14.8922 -70.3902 153° Southeast  Level FlightAware Approximate
01:46PM 14.7822 -70.3334 153° Southeast  Level FlightAware Approximate
01:47PM 14.6722 -70.2765 153° Southeast  Level FlightAware Approximate
01:48PM 14.5622 -70.2198 153° Southeast  Level FlightAware Approximate
01:49PM 14.4521 -70.1631 153° Southeast  Level FlightAware Approximate
01:50PM 14.3421 -70.1064 153° Southeast  Level FlightAware Approximate
01:51PM 14.2320 -70.0498 154° Southeast  Level FlightAware Approximate
01:52PM 14.1219 -69.9933 154° Southeast  Level FlightAware Approximate
01:53PM 14.0118 -69.9368 154° Southeast  Level FlightAware Approximate
01:54PM 13.9017 -69.8804 154° Southeast  Level FlightAware Approximate
01:55PM 13.7915 -69.8240 154° Southeast  Level FlightAware Approximate
01:56PM 13.6814 -69.7677 154° Southeast  Level FlightAware Approximate
01:57PM 13.5712 -69.7114 154° Southeast  Level FlightAware Approximate
01:58PM 13.4611 -69.6552 154° Southeast  Level FlightAware Approximate
01:59PM 13.3509 -69.5990 154° Southeast  Level FlightAware Approximate
02:00PM 13.2407 -69.5429 154° Southeast  Level FlightAware Approximate
02:01PM 13.1305 -69.4869 154° Southeast  Level FlightAware Approximate
02:02PM 13.0203 -69.4309 154° Southeast  Level FlightAware Approximate
02:03PM 12.9100 -69.3749 154° Southeast  Level FlightAware Approximate
02:04PM 12.7998 -69.3190 154° Southeast  Level FlightAware Approximate
02:05PM 12.6896 -69.2631 154° Southeast  Level FlightAware Approximate
02:06PM 12.5793 -69.2073 154° Southeast  Level FlightAware Approximate
02:07PM 12.4690 -69.1515 154° Southeast  Level FlightAware Approximate
02:08PM 12.3598 -69.0937 151° Southeast  Level FlightAware Approximate
02:09PM 12.2515 -69.0341 154° Southeast  Level FlightAware Approximate
02:10PM 12.1427 -68.9756 150° Southeast  Level FlightAware Approximate
02:11PM 12.0352 -68.9146 152° Southeast  Level FlightAware Approximate
02:12PM 11.9267 -68.8555 152° Southeast  Level FlightAware Approximate
02:12PM 11.4650 -68.5870 157° South 422 486 26,200  Level FlightAware
02:13PM 11.8137 -68.8059 157° South  Level FlightAware Approximate
02:13PM 11.3960 -68.5480 151° Southeast 411 473 25,000  Level FlightAware
02:13PM 11.3270 -68.5090 151° Southeast 403 464 23,900 -1,620 Descending FlightAware
02:14PM 11.2620 -68.4710 150° Southeast 394 453 22,800 -1,560 Descending FlightAware
02:15PM 11.1750 -68.4220 151° Southeast 385 443 21,500 -1,620 Descending FlightAware
02:16PM 11.1050 -68.3870 154° Southeast 394 453 20,200 -1,860 Descending FlightAware
02:16PM 11.0290 -68.3490 154° Southeast 385 443 18,800 -1,680 Descending FlightAware
02:17PM 10.9680 -68.3180 153° Southeast 374 430 17,800 -1,560 Descending FlightAware
02:18PM 10.9030 -68.2860 154° Southeast 365 420 16,700 -1,500 Descending FlightAware
02:18PM 10.8460 -68.2570 153° Southeast 356 410 15,800 -1,440 Descending FlightAware
02:19PM 10.7770 -68.2230 154° Southeast 348 400 14,700 -1,500 Descending FlightAware
02:20PM 10.7200 -68.1950 154° Southeast 340 391 13,700 -780 Descending FlightAware
02:20PM 10.6740 -68.1710 153° Southeast 340 391 13,700  Level FlightAware
02:21PM 10.6190 -68.1420 153° Southeast 340 391 13,700  Level FlightAware
02:24PM 10.3494 -68.0276 162° South  Level FlightAware Approximate
02:25PM 10.2372 -67.9770 154° Southeast  Level FlightAware Approximate
02:26PM 10.1500 -67.9167 144° Southeast  Level FlightAware Approximate
02:27PM 10.1497 -67.9284 144° Southeast  Level Estimated
02:28PM 10.1497 -67.9284 144° Southeast  Level Estimated
02:29PM 10.1497 -67.9284 144° Southeast  Level Estimated
02:30PM 10.1497 -67.9284 144° Southeast  Level Estimated
02:31PM 10.1497 -67.9284 144° Southeast  Level Estimated
02:32PM 10.1497 -67.9284 144° Southeast  Level Estimated
02:33PM 10.1497 -67.9284 144° Southeast  Level Estimated
02:34PM 10.1497 -67.9284 144° Southeast  Level Estimated
02:35PM 10.1497 -67.9284 144° Southeast  Level Estimated
02:36PM 10.1497 -67.9284 144° Southeast  Level Estimated
02:37PM 10.1497 -67.9284 144° Southeast  Level Estimated
02:38PM 10.1497 -67.9284 144° Southeast  Level Estimated
02:39PM 10.1497 -67.9284 144° Southeast  Level Estimated
02:40PM 10.1497 -67.9284 144° Southeast  Level Estimated
02:41PM 10.1497 -67.9284 144° Southeast  Level Estimated
02:42PM 10.1497 -67.9284 144° Southeast  Level Estimated
02:43PM 10.1497 -67.9284 144° Southeast  Level Estimated
02:44PM 10.1497 -67.9284 144° Southeast  Level Estimated
02:45PM 10.1497 -67.9284 144° Southeast  Level Estimated
02:46PM 10.1497 -67.9284 144° Southeast  Level Estimated
02:47PM 10.1497 -67.9284 144° Southeast  Level Estimated